sensor_id;sensor_type;location;lat;lon;timestamp;P1;durP1;ratioP1;P2;durP2;ratioP2
66189;SDS011;52992;52.084;5.412;2023-06-26T00:00:02;11.03;;;9.20;;
66189;SDS011;52992;52.084;5.412;2023-06-26T00:02:31;13.00;;;10.50;;
66189;SDS011;52992;52.084;5.412;2023-06-26T00:05:01;11.87;;;10.60;;
66189;SDS011;52992;52.084;5.412;2023-06-26T00:07:30;11.00;;;9.77;;
66189;SDS011;52992;52.084;5.412;2023-06-26T00:10:00;11.73;;;9.37;;
66189;SDS011;52992;52.084;5.412;2023-06-26T00:12:29;12.10;;;9.33;;
66189;SDS011;52992;52.084;5.412;2023-06-26T00:14:57;10.17;;;9.13;;
66189;SDS011;52992;52.084;5.412;2023-06-26T00:17:24;13.83;;;8.77;;
66189;SDS011;52992;52.084;5.412;2023-06-26T00:19:51;12.23;;;9.63;;
66189;SDS011;52992;52.084;5.412;2023-06-26T00:22:21;9.67;;;8.67;;
66189;SDS011;52992;52.084;5.412;2023-06-26T00:24:48;10.30;;;8.10;;
66189;SDS011;52992;52.084;5.412;2023-06-26T00:27:15;10.13;;;8.03;;
66189;SDS011;52992;52.084;5.412;2023-06-26T00:29:43;9.90;;;7.77;;
66189;SDS011;52992;52.084;5.412;2023-06-26T00:32:09;9.00;;;7.90;;
66189;SDS011;52992;52.084;5.412;2023-06-26T00:34:36;8.60;;;7.70;;
66189;SDS011;52992;52.084;5.412;2023-06-26T00:37:03;8.50;;;7.70;;
66189;SDS011;52992;52.084;5.412;2023-06-26T00:39:30;8.50;;;7.57;;
66189;SDS011;52992;52.084;5.412;2023-06-26T00:41:57;9.50;;;7.40;;
66189;SDS011;52992;52.084;5.412;2023-06-26T00:44:24;8.10;;;7.30;;
66189;SDS011;52992;52.084;5.412;2023-06-26T00:46:51;9.50;;;7.97;;
66189;SDS011;52992;52.084;5.412;2023-06-26T00:49:19;8.30;;;7.30;;
66189;SDS011;52992;52.084;5.412;2023-06-26T00:51:46;9.03;;;8.13;;
66189;SDS011;52992;52.084;5.412;2023-06-26T00:54:13;8.10;;;7.30;;
66189;SDS011;52992;52.084;5.412;2023-06-26T00:56:46;8.43;;;7.63;;
66189;SDS011;52992;52.084;5.412;2023-06-26T00:59:14;9.73;;;7.97;;
66189;SDS011;52992;52.084;5.412;2023-06-26T01:01:41;8.80;;;7.90;;
66189;SDS011;52992;52.084;5.412;2023-06-26T01:04:09;9.30;;;7.93;;
66189;SDS011;52992;52.084;5.412;2023-06-26T01:06:45;8.53;;;7.63;;
66189;SDS011;52992;52.084;5.412;2023-06-26T01:09:18;8.83;;;7.93;;
66189;SDS011;52992;52.084;5.412;2023-06-26T01:11:49;8.27;;;7.47;;
66189;SDS011;52992;52.084;5.412;2023-06-26T01:14:16;8.73;;;7.73;;
66189;SDS011;52992;52.084;5.412;2023-06-26T01:16:44;9.17;;;7.27;;
66189;SDS011;52992;52.084;5.412;2023-06-26T01:19:18;8.67;;;6.60;;
66189;SDS011;52992;52.084;5.412;2023-06-26T01:22:00;8.33;;;7.43;;
66189;SDS011;52992;52.084;5.412;2023-06-26T01:25:01;9.37;;;7.30;;
66189;SDS011;52992;52.084;5.412;2023-06-26T01:27:48;8.13;;;6.70;;
66189;SDS011;52992;52.084;5.412;2023-06-26T01:30:16;8.17;;;7.30;;
66189;SDS011;52992;52.084;5.412;2023-06-26T01:32:44;8.33;;;7.33;;
66189;SDS011;52992;52.084;5.412;2023-06-26T01:35:12;8.23;;;6.93;;
66189;SDS011;52992;52.084;5.412;2023-06-26T01:37:40;8.07;;;6.77;;
66189;SDS011;52992;52.084;5.412;2023-06-26T01:40:07;8.60;;;6.30;;
66189;SDS011;52992;52.084;5.412;2023-06-26T01:42:36;7.30;;;6.57;;
66189;SDS011;52992;52.084;5.412;2023-06-26T01:45:10;7.47;;;6.57;;
66189;SDS011;52992;52.084;5.412;2023-06-26T01:47:47;7.90;;;5.73;;
66189;SDS011;52992;52.084;5.412;2023-06-26T01:50:18;9.90;;;5.93;;
66189;SDS011;52992;52.084;5.412;2023-06-26T01:58:14;6.53;;;5.03;;
66189;SDS011;52992;52.084;5.412;2023-06-26T02:00:43;8.63;;;5.10;;
66189;SDS011;52992;52.084;5.412;2023-06-26T02:03:10;6.17;;;5.57;;
66189;SDS011;52992;52.084;5.412;2023-06-26T02:05:38;7.13;;;5.53;;
66189;SDS011;52992;52.084;5.412;2023-06-26T02:08:05;6.80;;;4.87;;
66189;SDS011;52992;52.084;5.412;2023-06-26T02:10:34;6.10;;;4.80;;
66189;SDS011;52992;52.084;5.412;2023-06-26T02:13:01;7.50;;;4.70;;
66189;SDS011;52992;52.084;5.412;2023-06-26T02:15:28;8.13;;;5.10;;
66189;SDS011;52992;52.084;5.412;2023-06-26T02:17:55;7.43;;;5.10;;
66189;SDS011;52992;52.084;5.412;2023-06-26T02:20:22;6.87;;;4.77;;
66189;SDS011;52992;52.084;5.412;2023-06-26T02:22:49;10.23;;;5.10;;
66189;SDS011;52992;52.084;5.412;2023-06-26T02:25:17;8.63;;;4.50;;
66189;SDS011;52992;52.084;5.412;2023-06-26T02:27:44;7.87;;;5.10;;
66189;SDS011;52992;52.084;5.412;2023-06-26T02:30:11;9.60;;;5.00;;
66189;SDS011;52992;52.084;5.412;2023-06-26T02:32:38;6.93;;;4.40;;
66189;SDS011;52992;52.084;5.412;2023-06-26T02:35:05;8.90;;;4.70;;
66189;SDS011;52992;52.084;5.412;2023-06-26T02:37:32;6.23;;;4.43;;
66189;SDS011;52992;52.084;5.412;2023-06-26T02:39:59;7.67;;;4.70;;
66189;SDS011;52992;52.084;5.412;2023-06-26T02:42:26;7.97;;;4.50;;
66189;SDS011;52992;52.084;5.412;2023-06-26T02:44:53;8.73;;;4.77;;
66189;SDS011;52992;52.084;5.412;2023-06-26T02:47:21;7.90;;;4.87;;
66189;SDS011;52992;52.084;5.412;2023-06-26T02:49:48;6.00;;;4.40;;
66189;SDS011;52992;52.084;5.412;2023-06-26T02:52:15;6.53;;;4.03;;
66189;SDS011;52992;52.084;5.412;2023-06-26T02:54:42;9.63;;;4.53;;
66189;SDS011;52992;52.084;5.412;2023-06-26T02:57:10;6.63;;;4.60;;
66189;SDS011;52992;52.084;5.412;2023-06-26T02:59:37;9.17;;;4.50;;
66189;SDS011;52992;52.084;5.412;2023-06-26T03:02:07;6.83;;;4.80;;
66189;SDS011;52992;52.084;5.412;2023-06-26T03:04:41;9.07;;;4.60;;
66189;SDS011;52992;52.084;5.412;2023-06-26T03:07:11;7.30;;;4.70;;
66189;SDS011;52992;52.084;5.412;2023-06-26T03:09:40;10.90;;;4.60;;
66189;SDS011;52992;52.084;5.412;2023-06-26T03:12:07;9.47;;;4.40;;
66189;SDS011;52992;52.084;5.412;2023-06-26T03:14:35;10.00;;;4.60;;
66189;SDS011;52992;52.084;5.412;2023-06-26T03:17:02;8.80;;;4.80;;
66189;SDS011;52992;52.084;5.412;2023-06-26T03:19:32;9.80;;;5.47;;
66189;SDS011;52992;52.084;5.412;2023-06-26T03:22:16;11.97;;;5.20;;
66189;SDS011;52992;52.084;5.412;2023-06-26T03:24:44;8.57;;;4.50;;
66189;SDS011;52992;52.084;5.412;2023-06-26T03:27:12;9.47;;;5.00;;
66189;SDS011;52992;52.084;5.412;2023-06-26T03:29:43;9.13;;;4.87;;
66189;SDS011;52992;52.084;5.412;2023-06-26T03:32:10;8.70;;;5.03;;
66189;SDS011;52992;52.084;5.412;2023-06-26T03:34:38;9.07;;;4.73;;
66189;SDS011;52992;52.084;5.412;2023-06-26T03:37:05;7.60;;;4.67;;
66189;SDS011;52992;52.084;5.412;2023-06-26T03:39:32;9.73;;;5.00;;
66189;SDS011;52992;52.084;5.412;2023-06-26T03:41:59;9.17;;;4.77;;
66189;SDS011;52992;52.084;5.412;2023-06-26T03:44:27;11.53;;;5.23;;
66189;SDS011;52992;52.084;5.412;2023-06-26T03:46:55;9.53;;;5.23;;
66189;SDS011;52992;52.084;5.412;2023-06-26T03:49:22;11.43;;;5.40;;
66189;SDS011;52992;52.084;5.412;2023-06-26T03:51:50;10.30;;;4.90;;
66189;SDS011;52992;52.084;5.412;2023-06-26T03:54:17;11.67;;;5.23;;
66189;SDS011;52992;52.084;5.412;2023-06-26T03:56:44;9.43;;;5.10;;
66189;SDS011;52992;52.084;5.412;2023-06-26T03:59:11;9.23;;;5.27;;
66189;SDS011;52992;52.084;5.412;2023-06-26T04:01:39;13.50;;;5.03;;
66189;SDS011;52992;52.084;5.412;2023-06-26T04:04:06;9.90;;;5.20;;
66189;SDS011;52992;52.084;5.412;2023-06-26T04:06:33;10.03;;;4.97;;
66189;SDS011;52992;52.084;5.412;2023-06-26T04:09:00;10.43;;;5.70;;
66189;SDS011;52992;52.084;5.412;2023-06-26T04:11:27;12.17;;;5.73;;
66189;SDS011;52992;52.084;5.412;2023-06-26T04:13:54;7.63;;;5.20;;
66189;SDS011;52992;52.084;5.412;2023-06-26T04:16:21;12.93;;;5.67;;
66189;SDS011;52992;52.084;5.412;2023-06-26T04:18:52;11.60;;;5.30;;
66189;SDS011;52992;52.084;5.412;2023-06-26T04:21:19;12.13;;;5.57;;
66189;SDS011;52992;52.084;5.412;2023-06-26T04:23:46;11.80;;;5.00;;
66189;SDS011;52992;52.084;5.412;2023-06-26T04:26:14;10.07;;;5.27;;
66189;SDS011;52992;52.084;5.412;2023-06-26T04:28:41;10.87;;;5.00;;
66189;SDS011;52992;52.084;5.412;2023-06-26T04:31:09;9.37;;;4.83;;
66189;SDS011;52992;52.084;5.412;2023-06-26T04:33:36;9.77;;;4.80;;
66189;SDS011;52992;52.084;5.412;2023-06-26T04:36:08;9.37;;;4.50;;
66189;SDS011;52992;52.084;5.412;2023-06-26T04:38:34;7.60;;;4.90;;
66189;SDS011;52992;52.084;5.412;2023-06-26T04:41:01;8.00;;;4.47;;
66189;SDS011;52992;52.084;5.412;2023-06-26T04:43:29;9.40;;;4.73;;
66189;SDS011;52992;52.084;5.412;2023-06-26T04:45:56;11.63;;;4.80;;
66189;SDS011;52992;52.084;5.412;2023-06-26T04:48:23;9.47;;;4.87;;
66189;SDS011;52992;52.084;5.412;2023-06-26T04:50:50;9.60;;;4.43;;
66189;SDS011;52992;52.084;5.412;2023-06-26T04:53:21;9.70;;;4.50;;
66189;SDS011;52992;52.084;5.412;2023-06-26T04:55:49;9.93;;;4.90;;
66189;SDS011;52992;52.084;5.412;2023-06-26T04:58:17;12.37;;;4.87;;
66189;SDS011;52992;52.084;5.412;2023-06-26T05:00:44;9.93;;;4.30;;
66189;SDS011;52992;52.084;5.412;2023-06-26T05:03:11;9.20;;;4.40;;
66189;SDS011;52992;52.084;5.412;2023-06-26T05:05:39;11.37;;;4.43;;
66189;SDS011;52992;52.084;5.412;2023-06-26T05:08:16;8.50;;;3.80;;
66189;SDS011;52992;52.084;5.412;2023-06-26T05:10:45;7.33;;;4.90;;
66189;SDS011;52992;52.084;5.412;2023-06-26T05:13:12;8.13;;;3.90;;
66189;SDS011;52992;52.084;5.412;2023-06-26T05:15:41;5.63;;;3.63;;
66189;SDS011;52992;52.084;5.412;2023-06-26T05:18:08;4.33;;;3.60;;
66189;SDS011;52992;52.084;5.412;2023-06-26T05:20:35;6.87;;;3.67;;
66189;SDS011;52992;52.084;5.412;2023-06-26T05:23:03;163.13;;;34.60;;
66189;SDS011;52992;52.084;5.412;2023-06-26T05:25:31;5.17;;;3.83;;
66189;SDS011;52992;52.084;5.412;2023-06-26T05:28:00;6.70;;;4.13;;
66189;SDS011;52992;52.084;5.412;2023-06-26T05:30:27;5.57;;;3.63;;
66189;SDS011;52992;52.084;5.412;2023-06-26T05:32:57;6.00;;;3.63;;
66189;SDS011;52992;52.084;5.412;2023-06-26T05:35:27;8.77;;;3.83;;
66189;SDS011;52992;52.084;5.412;2023-06-26T05:37:57;5.03;;;3.50;;
66189;SDS011;52992;52.084;5.412;2023-06-26T05:40:25;4.80;;;3.20;;
66189;SDS011;52992;52.084;5.412;2023-06-26T05:42:52;5.23;;;3.60;;
66189;SDS011;52992;52.084;5.412;2023-06-26T05:45:19;6.30;;;4.00;;
66189;SDS011;52992;52.084;5.412;2023-06-26T05:47:46;4.53;;;3.20;;
66189;SDS011;52992;52.084;5.412;2023-06-26T05:50:14;6.53;;;3.60;;
66189;SDS011;52992;52.084;5.412;2023-06-26T05:52:41;4.83;;;3.20;;
66189;SDS011;52992;52.084;5.412;2023-06-26T05:55:10;4.27;;;3.27;;
66189;SDS011;52992;52.084;5.412;2023-06-26T05:57:38;6.03;;;3.30;;
66189;SDS011;52992;52.084;5.412;2023-06-26T06:00:06;5.20;;;3.10;;
66189;SDS011;52992;52.084;5.412;2023-06-26T06:02:41;6.43;;;3.10;;
66189;SDS011;52992;52.084;5.412;2023-06-26T06:05:09;7.77;;;3.60;;
66189;SDS011;52992;52.084;5.412;2023-06-26T06:07:36;4.57;;;3.20;;
66189;SDS011;52992;52.084;5.412;2023-06-26T06:10:03;5.00;;;3.30;;
66189;SDS011;52992;52.084;5.412;2023-06-26T06:12:31;4.67;;;3.20;;
66189;SDS011;52992;52.084;5.412;2023-06-26T06:14:58;5.97;;;3.00;;
66189;SDS011;52992;52.084;5.412;2023-06-26T06:17:25;3.57;;;2.50;;
66189;SDS011;52992;52.084;5.412;2023-06-26T06:19:52;5.03;;;3.23;;
66189;SDS011;52992;52.084;5.412;2023-06-26T06:22:18;5.37;;;2.90;;
66189;SDS011;52992;52.084;5.412;2023-06-26T06:24:45;4.93;;;2.83;;
66189;SDS011;52992;52.084;5.412;2023-06-26T06:27:14;4.73;;;2.77;;
66189;SDS011;52992;52.084;5.412;2023-06-26T06:29:42;8.70;;;3.00;;
66189;SDS011;52992;52.084;5.412;2023-06-26T06:32:08;4.80;;;2.87;;
66189;SDS011;52992;52.084;5.412;2023-06-26T06:34:36;4.63;;;2.63;;
66189;SDS011;52992;52.084;5.412;2023-06-26T06:37:03;4.60;;;2.97;;
66189;SDS011;52992;52.084;5.412;2023-06-26T06:39:30;4.80;;;2.90;;
66189;SDS011;52992;52.084;5.412;2023-06-26T06:41:57;6.57;;;3.30;;
66189;SDS011;52992;52.084;5.412;2023-06-26T06:44:24;4.73;;;2.60;;
66189;SDS011;52992;52.084;5.412;2023-06-26T06:46:51;5.57;;;2.90;;
66189;SDS011;52992;52.084;5.412;2023-06-26T06:49:18;5.27;;;2.80;;
66189;SDS011;52992;52.084;5.412;2023-06-26T06:51:45;5.67;;;3.30;;
66189;SDS011;52992;52.084;5.412;2023-06-26T06:54:12;5.53;;;3.10;;
66189;SDS011;52992;52.084;5.412;2023-06-26T06:56:39;10.57;;;3.03;;
66189;SDS011;52992;52.084;5.412;2023-06-26T06:59:05;4.40;;;3.17;;
66189;SDS011;52992;52.084;5.412;2023-06-26T07:01:32;5.60;;;2.87;;
66189;SDS011;52992;52.084;5.412;2023-06-26T07:04:00;6.93;;;3.30;;
66189;SDS011;52992;52.084;5.412;2023-06-26T07:06:27;5.23;;;3.03;;
66189;SDS011;52992;52.084;5.412;2023-06-26T07:08:54;4.77;;;2.97;;
66189;SDS011;52992;52.084;5.412;2023-06-26T07:11:21;4.30;;;3.30;;
66189;SDS011;52992;52.084;5.412;2023-06-26T07:13:48;5.60;;;4.00;;
66189;SDS011;52992;52.084;5.412;2023-06-26T07:16:15;9.10;;;3.77;;
66189;SDS011;52992;52.084;5.412;2023-06-26T07:18:42;6.23;;;3.63;;
66189;SDS011;52992;52.084;5.412;2023-06-26T07:21:10;7.40;;;3.43;;
66189;SDS011;52992;52.084;5.412;2023-06-26T07:23:37;4.40;;;3.27;;
66189;SDS011;52992;52.084;5.412;2023-06-26T07:26:04;7.37;;;3.40;;
66189;SDS011;52992;52.084;5.412;2023-06-26T07:28:31;7.00;;;3.33;;
66189;SDS011;52992;52.084;5.412;2023-06-26T07:30:58;5.60;;;2.90;;
66189;SDS011;52992;52.084;5.412;2023-06-26T07:33:25;5.90;;;3.20;;
66189;SDS011;52992;52.084;5.412;2023-06-26T07:35:51;5.27;;;2.93;;
66189;SDS011;52992;52.084;5.412;2023-06-26T07:38:18;4.03;;;3.20;;
66189;SDS011;52992;52.084;5.412;2023-06-26T07:40:45;9.43;;;3.50;;
66189;SDS011;52992;52.084;5.412;2023-06-26T07:43:12;4.70;;;3.47;;
66189;SDS011;52992;52.084;5.412;2023-06-26T07:45:39;3.73;;;3.17;;
66189;SDS011;52992;52.084;5.412;2023-06-26T07:48:06;8.20;;;3.13;;
66189;SDS011;52992;52.084;5.412;2023-06-26T07:50:35;4.47;;;3.20;;
66189;SDS011;52992;52.084;5.412;2023-06-26T07:53:03;5.83;;;3.10;;
66189;SDS011;52992;52.084;5.412;2023-06-26T07:55:32;6.90;;;3.50;;
66189;SDS011;52992;52.084;5.412;2023-06-26T07:57:59;4.43;;;2.90;;
66189;SDS011;52992;52.084;5.412;2023-06-26T08:00:28;4.40;;;3.40;;
66189;SDS011;52992;52.084;5.412;2023-06-26T08:02:55;8.07;;;3.60;;
66189;SDS011;52992;52.084;5.412;2023-06-26T08:05:22;6.60;;;3.37;;
66189;SDS011;52992;52.084;5.412;2023-06-26T08:07:49;5.63;;;3.30;;
66189;SDS011;52992;52.084;5.412;2023-06-26T08:10:16;3.30;;;2.80;;
66189;SDS011;52992;52.084;5.412;2023-06-26T08:12:43;7.23;;;3.77;;
66189;SDS011;52992;52.084;5.412;2023-06-26T08:15:11;7.93;;;3.50;;
66189;SDS011;52992;52.084;5.412;2023-06-26T08:17:38;5.40;;;2.90;;
66189;SDS011;52992;52.084;5.412;2023-06-26T08:20:06;5.67;;;3.50;;
66189;SDS011;52992;52.084;5.412;2023-06-26T08:22:34;6.80;;;3.70;;
66189;SDS011;52992;52.084;5.412;2023-06-26T08:25:02;7.17;;;3.93;;
66189;SDS011;52992;52.084;5.412;2023-06-26T08:27:30;8.07;;;3.67;;
66189;SDS011;52992;52.084;5.412;2023-06-26T08:29:58;5.93;;;3.13;;
66189;SDS011;52992;52.084;5.412;2023-06-26T08:32:24;4.13;;;2.90;;
66189;SDS011;52992;52.084;5.412;2023-06-26T08:34:52;5.67;;;2.87;;
66189;SDS011;52992;52.084;5.412;2023-06-26T08:37:19;6.63;;;2.40;;
66189;SDS011;52992;52.084;5.412;2023-06-26T08:39:46;3.40;;;2.43;;
66189;SDS011;52992;52.084;5.412;2023-06-26T08:42:14;3.37;;;2.40;;
66189;SDS011;52992;52.084;5.412;2023-06-26T08:44:41;5.20;;;2.60;;
66189;SDS011;52992;52.084;5.412;2023-06-26T08:47:25;8.20;;;2.53;;
66189;SDS011;52992;52.084;5.412;2023-06-26T08:49:56;4.23;;;2.30;;
66189;SDS011;52992;52.084;5.412;2023-06-26T08:52:49;4.20;;;2.20;;
66189;SDS011;52992;52.084;5.412;2023-06-26T08:55:19;6.53;;;2.30;;
66189;SDS011;52992;52.084;5.412;2023-06-26T08:57:50;6.47;;;1.90;;
66189;SDS011;52992;52.084;5.412;2023-06-26T09:00:19;3.27;;;1.73;;
66189;SDS011;52992;52.084;5.412;2023-06-26T09:02:47;5.43;;;1.83;;
66189;SDS011;52992;52.084;5.412;2023-06-26T09:05:14;2.43;;;1.80;;
66189;SDS011;52992;52.084;5.412;2023-06-26T09:07:41;3.90;;;1.80;;
66189;SDS011;52992;52.084;5.412;2023-06-26T09:10:08;6.23;;;2.37;;
66189;SDS011;52992;52.084;5.412;2023-06-26T09:12:36;3.70;;;2.03;;
66189;SDS011;52992;52.084;5.412;2023-06-26T09:15:04;4.57;;;2.33;;
66189;SDS011;52992;52.084;5.412;2023-06-26T09:17:33;5.03;;;2.23;;
66189;SDS011;52992;52.084;5.412;2023-06-26T09:20:06;4.17;;;2.50;;
66189;SDS011;52992;52.084;5.412;2023-06-26T09:22:38;4.27;;;2.50;;
66189;SDS011;52992;52.084;5.412;2023-06-26T09:25:07;4.60;;;2.50;;
66189;SDS011;52992;52.084;5.412;2023-06-26T09:27:35;3.77;;;2.03;;
66189;SDS011;52992;52.084;5.412;2023-06-26T09:30:03;4.30;;;1.93;;
66189;SDS011;52992;52.084;5.412;2023-06-26T09:32:30;5.07;;;1.90;;
66189;SDS011;52992;52.084;5.412;2023-06-26T09:34:57;5.73;;;1.83;;
66189;SDS011;52992;52.084;5.412;2023-06-26T09:37:26;2.33;;;2.00;;
66189;SDS011;52992;52.084;5.412;2023-06-26T09:39:53;3.93;;;2.10;;
66189;SDS011;52992;52.084;5.412;2023-06-26T09:42:20;2.63;;;2.10;;
66189;SDS011;52992;52.084;5.412;2023-06-26T09:44:47;4.33;;;2.03;;
66189;SDS011;52992;52.084;5.412;2023-06-26T09:47:18;5.20;;;2.40;;
66189;SDS011;52992;52.084;5.412;2023-06-26T09:49:46;5.03;;;2.10;;
66189;SDS011;52992;52.084;5.412;2023-06-26T09:52:14;4.13;;;1.97;;
66189;SDS011;52992;52.084;5.412;2023-06-26T09:54:45;4.87;;;2.20;;
66189;SDS011;52992;52.084;5.412;2023-06-26T09:57:13;3.00;;;2.10;;
66189;SDS011;52992;52.084;5.412;2023-06-26T09:59:43;3.63;;;2.30;;
66189;SDS011;52992;52.084;5.412;2023-06-26T10:02:11;3.30;;;1.83;;
66189;SDS011;52992;52.084;5.412;2023-06-26T10:04:39;3.67;;;2.10;;
66189;SDS011;52992;52.084;5.412;2023-06-26T10:07:09;8.33;;;2.30;;
66189;SDS011;52992;52.084;5.412;2023-06-26T10:09:40;3.43;;;1.67;;
66189;SDS011;52992;52.084;5.412;2023-06-26T10:12:14;3.60;;;1.90;;
66189;SDS011;52992;52.084;5.412;2023-06-26T10:14:51;4.13;;;1.90;;
66189;SDS011;52992;52.084;5.412;2023-06-26T10:17:19;3.40;;;1.97;;
66189;SDS011;52992;52.084;5.412;2023-06-26T10:19:49;4.60;;;2.30;;
66189;SDS011;52992;52.084;5.412;2023-06-26T10:22:19;4.23;;;2.23;;
66189;SDS011;52992;52.084;5.412;2023-06-26T10:24:48;4.60;;;2.17;;
66189;SDS011;52992;52.084;5.412;2023-06-26T10:27:17;4.73;;;1.87;;
66189;SDS011;52992;52.084;5.412;2023-06-26T10:29:47;3.47;;;1.73;;
66189;SDS011;52992;52.084;5.412;2023-06-26T10:32:23;3.00;;;1.87;;
66189;SDS011;52992;52.084;5.412;2023-06-26T10:34:52;2.90;;;1.63;;
66189;SDS011;52992;52.084;5.412;2023-06-26T10:37:19;3.13;;;1.87;;
66189;SDS011;52992;52.084;5.412;2023-06-26T10:42:17;3.57;;;1.80;;
66189;SDS011;52992;52.084;5.412;2023-06-26T10:44:46;3.33;;;1.73;;
66189;SDS011;52992;52.084;5.412;2023-06-26T10:47:35;3.47;;;1.70;;
66189;SDS011;52992;52.084;5.412;2023-06-26T10:53:08;4.57;;;1.87;;
66189;SDS011;52992;52.084;5.412;2023-06-26T10:55:54;5.13;;;1.80;;
66189;SDS011;52992;52.084;5.412;2023-06-26T10:58:32;4.03;;;1.83;;
66189;SDS011;52992;52.084;5.412;2023-06-26T11:06:24;3.87;;;2.07;;
66189;SDS011;52992;52.084;5.412;2023-06-26T11:08:52;3.47;;;2.53;;
66189;SDS011;52992;52.084;5.412;2023-06-26T11:14:21;3.33;;;1.83;;
66189;SDS011;52992;52.084;5.412;2023-06-26T11:16:49;4.87;;;2.10;;
66189;SDS011;52992;52.084;5.412;2023-06-26T11:19:17;3.63;;;1.70;;
66189;SDS011;52992;52.084;5.412;2023-06-26T11:21:45;2.93;;;1.70;;
66189;SDS011;52992;52.084;5.412;2023-06-26T11:24:12;3.67;;;2.07;;
66189;SDS011;52992;52.084;5.412;2023-06-26T11:26:40;3.63;;;1.67;;
66189;SDS011;52992;52.084;5.412;2023-06-26T11:29:09;5.00;;;1.70;;
66189;SDS011;52992;52.084;5.412;2023-06-26T11:31:37;2.88;;;1.50;;
66189;SDS011;52992;52.084;5.412;2023-06-26T11:34:09;6.18;;;1.90;;
66189;SDS011;52992;52.084;5.412;2023-06-26T11:36:39;1.87;;;1.50;;
66189;SDS011;52992;52.084;5.412;2023-06-26T11:39:09;3.37;;;1.70;;
66189;SDS011;52992;52.084;5.412;2023-06-26T11:41:36;3.07;;;1.87;;
66189;SDS011;52992;52.084;5.412;2023-06-26T11:44:06;2.80;;;1.77;;
66189;SDS011;52992;52.084;5.412;2023-06-26T11:46:34;1.53;;;1.17;;
66189;SDS011;52992;52.084;5.412;2023-06-26T11:49:05;2.40;;;1.65;;
66189;SDS011;52992;52.084;5.412;2023-06-26T11:51:33;6.40;;;1.77;;
66189;SDS011;52992;52.084;5.412;2023-06-26T11:54:01;4.90;;;1.67;;
66189;SDS011;52992;52.084;5.412;2023-06-26T11:56:29;2.60;;;1.80;;
66189;SDS011;52992;52.084;5.412;2023-06-26T11:59:00;3.10;;;1.50;;
66189;SDS011;52992;52.084;5.412;2023-06-26T12:01:38;1.90;;;1.52;;
66189;SDS011;52992;52.084;5.412;2023-06-26T12:04:08;3.57;;;1.80;;
66189;SDS011;52992;52.084;5.412;2023-06-26T12:06:37;4.03;;;1.67;;
66189;SDS011;52992;52.084;5.412;2023-06-26T12:09:07;4.13;;;1.70;;
66189;SDS011;52992;52.084;5.412;2023-06-26T12:11:41;2.58;;;1.60;;
66189;SDS011;52992;52.084;5.412;2023-06-26T12:14:10;3.23;;;1.60;;
66189;SDS011;52992;52.084;5.412;2023-06-26T12:16:39;3.70;;;1.20;;
66189;SDS011;52992;52.084;5.412;2023-06-26T12:19:07;1.85;;;1.35;;
66189;SDS011;52992;52.084;5.412;2023-06-26T12:24:05;1.63;;;1.40;;
66189;SDS011;52992;52.084;5.412;2023-06-26T12:26:34;2.43;;;1.33;;
66189;SDS011;52992;52.084;5.412;2023-06-26T12:29:03;1.43;;;1.30;;
66189;SDS011;52992;52.084;5.412;2023-06-26T12:31:32;2.40;;;1.40;;
66189;SDS011;52992;52.084;5.412;2023-06-26T12:34:00;3.93;;;1.80;;
66189;SDS011;52992;52.084;5.412;2023-06-26T12:36:27;4.23;;;1.40;;
66189;SDS011;52992;52.084;5.412;2023-06-26T12:38:54;2.53;;;1.37;;
66189;SDS011;52992;52.084;5.412;2023-06-26T12:41:23;4.27;;;1.83;;
66189;SDS011;52992;52.084;5.412;2023-06-26T12:43:55;4.33;;;1.37;;
66189;SDS011;52992;52.084;5.412;2023-06-26T12:46:33;1.57;;;1.30;;
66189;SDS011;52992;52.084;5.412;2023-06-26T12:49:02;1.63;;;1.33;;
66189;SDS011;52992;52.084;5.412;2023-06-26T12:51:37;3.60;;;1.13;;
66189;SDS011;52992;52.084;5.412;2023-06-26T12:54:06;2.23;;;1.23;;
66189;SDS011;52992;52.084;5.412;2023-06-26T12:56:34;2.40;;;1.20;;
66189;SDS011;52992;52.084;5.412;2023-06-26T12:59:01;3.70;;;1.33;;
66189;SDS011;52992;52.084;5.412;2023-06-26T13:01:28;2.10;;;1.50;;
66189;SDS011;52992;52.084;5.412;2023-06-26T13:03:55;2.70;;;1.40;;
66189;SDS011;52992;52.084;5.412;2023-06-26T13:06:22;5.87;;;1.70;;
66189;SDS011;52992;52.084;5.412;2023-06-26T13:08:49;1.77;;;0.93;;
66189;SDS011;52992;52.084;5.412;2023-06-26T13:11:15;1.50;;;1.10;;
66189;SDS011;52992;52.084;5.412;2023-06-26T13:13:43;4.13;;;1.60;;
66189;SDS011;52992;52.084;5.412;2023-06-26T13:16:16;5.17;;;1.13;;
66189;SDS011;52992;52.084;5.412;2023-06-26T13:18:44;1.70;;;1.00;;
66189;SDS011;52992;52.084;5.412;2023-06-26T13:21:12;3.37;;;1.10;;
66189;SDS011;52992;52.084;5.412;2023-06-26T13:23:39;3.60;;;1.70;;
66189;SDS011;52992;52.084;5.412;2023-06-26T13:26:06;2.03;;;1.30;;
66189;SDS011;52992;52.084;5.412;2023-06-26T13:28:33;3.47;;;1.40;;
66189;SDS011;52992;52.084;5.412;2023-06-26T13:31:02;3.33;;;1.57;;
66189;SDS011;52992;52.084;5.412;2023-06-26T13:33:30;3.63;;;1.33;;
66189;SDS011;52992;52.084;5.412;2023-06-26T13:35:58;3.97;;;1.60;;
66189;SDS011;52992;52.084;5.412;2023-06-26T13:38:25;2.60;;;1.13;;
66189;SDS011;52992;52.084;5.412;2023-06-26T13:40:52;1.90;;;1.60;;
66189;SDS011;52992;52.084;5.412;2023-06-26T13:43:20;2.77;;;1.40;;
66189;SDS011;52992;52.084;5.412;2023-06-26T13:45:49;4.63;;;1.50;;
66189;SDS011;52992;52.084;5.412;2023-06-26T13:48:16;3.17;;;1.40;;
66189;SDS011;52992;52.084;5.412;2023-06-26T13:50:44;3.43;;;1.50;;
66189;SDS011;52992;52.084;5.412;2023-06-26T13:53:19;2.47;;;1.57;;
66189;SDS011;52992;52.084;5.412;2023-06-26T13:55:47;3.47;;;1.40;;
66189;SDS011;52992;52.084;5.412;2023-06-26T13:58:14;3.67;;;1.57;;
66189;SDS011;52992;52.084;5.412;2023-06-26T14:00:41;2.63;;;1.30;;
66189;SDS011;52992;52.084;5.412;2023-06-26T14:03:11;2.80;;;1.53;;
66189;SDS011;52992;52.084;5.412;2023-06-26T14:05:38;2.27;;;1.47;;
66189;SDS011;52992;52.084;5.412;2023-06-26T14:08:08;1.53;;;1.20;;
66189;SDS011;52992;52.084;5.412;2023-06-26T14:10:35;4.30;;;1.23;;
66189;SDS011;52992;52.084;5.412;2023-06-26T14:13:03;2.53;;;1.80;;
66189;SDS011;52992;52.084;5.412;2023-06-26T14:15:33;2.83;;;1.57;;
66189;SDS011;52992;52.084;5.412;2023-06-26T14:18:00;4.97;;;1.67;;
66189;SDS011;52992;52.084;5.412;2023-06-26T14:20:29;2.33;;;1.90;;
66189;SDS011;52992;52.084;5.412;2023-06-26T14:22:59;4.43;;;2.00;;
66189;SDS011;52992;52.084;5.412;2023-06-26T14:25:26;4.87;;;1.60;;
66189;SDS011;52992;52.084;5.412;2023-06-26T14:27:57;3.07;;;1.70;;
66189;SDS011;52992;52.084;5.412;2023-06-26T14:30:25;2.13;;;1.47;;
66189;SDS011;52992;52.084;5.412;2023-06-26T14:32:52;1.93;;;1.47;;
66189;SDS011;52992;52.084;5.412;2023-06-26T14:35:19;1.53;;;1.20;;
66189;SDS011;52992;52.084;5.412;2023-06-26T14:37:47;3.40;;;1.43;;
66189;SDS011;52992;52.084;5.412;2023-06-26T14:40:14;4.50;;;0.93;;
66189;SDS011;52992;52.084;5.412;2023-06-26T14:42:42;2.67;;;1.50;;
66189;SDS011;52992;52.084;5.412;2023-06-26T14:45:10;1.73;;;1.33;;
66189;SDS011;52992;52.084;5.412;2023-06-26T14:47:38;3.87;;;1.33;;
66189;SDS011;52992;52.084;5.412;2023-06-26T14:50:05;1.83;;;1.30;;
66189;SDS011;52992;52.084;5.412;2023-06-26T14:52:32;2.73;;;1.40;;
66189;SDS011;52992;52.084;5.412;2023-06-26T14:54:59;3.03;;;1.50;;
66189;SDS011;52992;52.084;5.412;2023-06-26T14:57:26;1.83;;;1.13;;
66189;SDS011;52992;52.084;5.412;2023-06-26T14:59:53;2.60;;;1.50;;
66189;SDS011;52992;52.084;5.412;2023-06-26T15:02:20;3.77;;;1.47;;
66189;SDS011;52992;52.084;5.412;2023-06-26T15:04:47;1.67;;;1.53;;
66189;SDS011;52992;52.084;5.412;2023-06-26T15:07:14;3.80;;;1.70;;
66189;SDS011;52992;52.084;5.412;2023-06-26T15:09:41;2.33;;;1.33;;
66189;SDS011;52992;52.084;5.412;2023-06-26T15:12:08;6.77;;;1.77;;
66189;SDS011;52992;52.084;5.412;2023-06-26T15:14:36;3.17;;;1.37;;